Time;durP1;ratioP1;P1;durP2;ratioP2;P2;SDS_P1;SDS_P2;PMS_P1;PMS_P2;Temp;Humidity;BMP_temperature;BMP_pressure;BME280_temperature;BME280_humidity;BME280_pressure;Samples;Min_cycle;Max_cycle;Signal;HPM_P1;HPM_P2
2022/03/15 00:01:05;;;;;;;18.20;10.75;;;11.80;76.00;;;;;;5067013;28;20067;-74
2022/03/15 00:03:31;;;;;;;21.15;10.27;;;11.80;76.00;;;;;;5058822;28;20051;-74
2022/03/15 00:05:56;;;;;;;20.75;10.50;;;11.80;76.00;;;;;;5065489;28;20025;-74
2022/03/15 00:08:22;;;;;;;19.92;10.43;;;11.80;76.00;;;;;;5067078;28;20031;-74
2022/03/15 00:10:48;;;;;;;21.20;10.63;;;11.80;76.00;;;;;;5065635;28;20533;-74
2022/03/15 00:13:15;;;;;;;20.40;10.20;;;11.80;76.00;;;;;;5063573;28;20123;-74
2022/03/15 00:15:42;;;;;;;17.60;10.90;;;11.80;76.20;;;;;;5059879;28;20021;-74
2022/03/15 00:18:08;;;;;;;22.85;10.50;;;11.80;76.20;;;;;;5046840;28;20379;-74
2022/03/15 00:20:34;;;;;;;20.27;11.07;;;11.80;76.10;;;;;;5045454;28;20025;-74
2022/03/15 00:23:00;;;;;;;20.90;11.75;;;11.80;76.20;;;;;;5046755;28;20029;-73
2022/03/15 00:25:26;;;;;;;21.15;10.57;;;11.80;76.20;;;;;;5059266;28;20021;-74
2022/03/15 00:27:52;;;;;;;19.88;10.55;;;11.80;76.30;;;;;;5066475;28;20056;-73
2022/03/15 00:30:20;;;;;;;20.75;10.35;;;11.80;76.30;;;;;;5066608;28;20485;-74
2022/03/15 00:32:47;;;;;;;30.05;10.60;;;11.80;76.20;;;;;;5064448;28;20025;-74
2022/03/15 00:35:19;;;;;;;34.42;11.50;;;11.80;76.20;;;;;;5053951;28;20024;-74
2022/03/15 00:37:45;;;;;;;36.65;11.52;;;11.80;76.20;;;;;;5066608;28;20028;-74
2022/03/15 00:40:12;;;;;;;28.52;11.65;;;11.80;76.30;;;;;;5065233;28;20119;-74
2022/03/15 00:42:38;;;;;;;33.63;12.40;;;11.80;76.20;;;;;;5065116;28;21119;-73
2022/03/15 00:45:04;;;;;;;26.25;11.88;;;11.80;76.30;;;;;;5063588;28;20115;-74
2022/03/15 00:47:30;;;;;;;26.77;11.50;;;11.80;76.40;;;;;;5065776;28;20733;-73
2022/03/15 00:49:56;;;;;;;21.77;10.88;;;11.80;76.30;;;;;;5066211;28;20054;-73
2022/03/15 00:52:22;;;;;;;23.83;10.77;;;11.80;76.30;;;;;;5064761;28;20465;-74
2022/03/15 00:54:47;;;;;;;27.30;12.00;;;11.80;76.40;;;;;;5065003;28;20039;-74
2022/03/15 00:57:13;;;;;;;37.08;11.65;;;11.80;76.40;;;;;;5046293;28;20037;-74
2022/03/15 00:59:39;;;;;;;34.95;12.70;;;11.80;76.40;;;;;;5045981;28;20052;-73
2022/03/15 01:02:05;;;;;;;27.67;11.63;;;11.80;76.40;;;;;;5044801;28;20039;-74
2022/03/15 01:04:31;;;;;;;24.73;10.98;;;11.80;76.50;;;;;;5044214;28;20075;-75
2022/03/15 01:06:56;;;;;;;22.70;11.30;;;11.80;76.40;;;;;;5047488;28;20055;-74
2022/03/15 01:09:22;;;;;;;26.25;10.93;;;11.80;76.40;;;;;;5064482;28;20047;-77
2022/03/15 01:11:47;;;;;;;27.83;11.23;;;11.80;76.50;;;;;;5065739;28;20090;-74
2022/03/15 01:14:13;;;;;;;22.50;10.90;;;11.80;76.50;;;;;;5057467;28;20068;-73
2022/03/15 01:16:39;;;;;;;26.10;11.02;;;11.80;76.50;;;;;;5046007;28;20544;-74
2022/03/15 01:19:07;;;;;;;30.17;11.10;;;11.80;76.50;;;;;;5057305;28;20029;-73
2022/03/15 01:21:35;;;;;;;23.73;11.25;;;11.80;76.60;;;;;;5065389;28;20029;-74
2022/03/15 01:24:00;;;;;;;33.92;11.57;;;11.80;76.50;;;;;;5064015;28;20041;-74
2022/03/15 01:26:26;;;;;;;28.13;10.93;;;11.80;76.60;;;;;;5065573;28;20034;-74
2022/03/15 01:28:52;;;;;;;22.10;10.88;;;11.80;76.50;;;;;;5062262;28;20050;-73
2022/03/15 01:31:17;;;;;;;27.52;11.45;;;11.80;76.50;;;;;;5054451;28;20486;-74
2022/03/15 01:33:43;;;;;;;20.48;11.18;;;11.80;76.50;;;;;;5057520;28;20024;-74
2022/03/15 01:36:09;;;;;;;53.58;12.85;;;11.80;76.50;;;;;;5050944;28;20130;-74
2022/03/15 01:38:35;;;;;;;135.77;17.25;;;11.80;76.70;;;;;;5065328;28;20035;-75
2022/03/15 01:41:00;;;;;;;104.47;16.45;;;11.80;76.70;;;;;;5064244;28;20544;-74
2022/03/15 01:43:26;;;;;;;38.47;12.45;;;11.80;76.60;;;;;;5065652;28;20040;-73
2022/03/15 01:45:53;;;;;;;33.25;11.57;;;11.80;76.50;;;;;;5047598;28;20040;-74
2022/03/15 01:48:20;;;;;;;25.27;10.20;;;11.80;76.60;;;;;;5045283;28;20546;-74
2022/03/15 01:50:46;;;;;;;25.02;11.50;;;11.80;76.70;;;;;;5060606;28;20030;-74
2022/03/15 01:53:14;;;;;;;21.02;10.32;;;11.80;76.60;;;;;;5065175;28;20028;-74
2022/03/15 01:55:40;;;;;;;18.75;10.40;;;11.80;76.50;;;;;;5064076;28;20533;-74
2022/03/15 01:58:06;;;;;;;19.70;10.38;;;11.80;76.50;;;;;;5056730;28;20051;-74
2022/03/15 02:00:32;;;;;;;15.60;9.85;;;11.80;76.50;;;;;;5046734;28;20037;-73
2022/03/15 02:02:58;;;;;;;17.00;9.93;;;11.80;76.60;;;;;;5045431;28;20439;-74
2022/03/15 02:05:23;;;;;;;16.98;10.13;;;11.80;76.50;;;;;;5045083;28;20029;-74
2022/03/15 02:07:49;;;;;;;19.50;10.55;;;11.80;76.50;;;;;;5048244;28;20032;-74
2022/03/15 02:10:14;;;;;;;21.08;10.80;;;11.80;76.50;;;;;;5063357;28;20374;-73
2022/03/15 02:12:40;;;;;;;16.23;10.15;;;11.80;76.50;;;;;;5064456;28;20036;-74
2022/03/15 02:15:07;;;;;;;15.60;9.90;;;11.80;76.50;;;;;;5064331;28;20294;-74
2022/03/15 02:17:34;;;;;;;58.90;12.75;;;11.80;76.50;;;;;;5065065;28;20501;-74
2022/03/15 02:20:05;;;;;;;33.78;11.25;;;11.80;76.60;;;;;;5064672;28;20585;-73
2022/03/15 02:22:30;;;;;;;22.58;10.40;;;11.80;76.50;;;;;;5063827;28;20033;-74
2022/03/15 02:24:56;;;;;;;23.80;10.30;;;11.80;76.60;;;;;;5063437;28;20029;-74
2022/03/15 02:27:23;;;;;;;24.95;10.70;;;11.80;76.60;;;;;;5054612;28;20029;-73
2022/03/15 02:29:49;;;;;;;29.70;10.18;;;11.80;76.50;;;;;;5050784;28;20025;-74
2022/03/15 02:32:15;;;;;;;19.38;10.13;;;11.80;76.50;;;;;;5064742;28;20061;-73
2022/03/15 02:34:40;;;;;;;22.15;11.20;;;11.80;76.50;;;;;;5067465;28;20021;-74
2022/03/15 02:37:06;;;;;;;109.25;15.88;;;11.80;76.50;;;;;;5068728;28;20024;-74
2022/03/15 02:39:32;;;;;;;47.33;11.77;;;11.80;76.50;;;;;;5067451;28;20555;-74
2022/03/15 02:41:57;;;;;;;36.70;12.40;;;11.80;76.70;;;;;;5062602;28;20094;-73
2022/03/15 02:44:23;;;;;;;35.13;12.30;;;11.80;76.70;;;;;;5055126;28;20029;-74
2022/03/15 02:46:52;;;;;;;34.75;11.27;;;11.80;76.60;;;;;;5048494;28;20033;-74
2022/03/15 02:49:17;;;;;;;38.72;11.63;;;11.80;76.50;;;;;;5048525;28;20124;-74
2022/03/15 02:51:43;;;;;;;38.30;12.35;;;11.80;76.60;;;;;;5068279;28;20047;-73
2022/03/15 02:54:11;;;;;;;60.17;12.82;;;11.80;76.60;;;;;;5067722;28;20028;-74
2022/03/15 02:56:42;;;;;;;39.53;12.45;;;11.80;77.10;;;;;;5066374;28;20036;-74
2022/03/15 02:59:07;;;;;;;34.10;11.63;;;11.80;76.60;;;;;;5048384;28;20043;-74
2022/03/15 03:01:34;;;;;;;62.15;12.80;;;11.80;76.60;;;;;;5059699;28;20497;-74
2022/03/15 03:03:59;;;;;;;53.90;12.85;;;11.80;76.70;;;;;;5067054;28;20020;-74
2022/03/15 03:06:25;;;;;;;54.50;12.68;;;11.80;76.70;;;;;;5067896;28;20044;-75
2022/03/15 03:08:52;;;;;;;46.40;12.32;;;11.80;76.70;;;;;;5067204;28;20033;-74
2022/03/15 03:11:18;;;;;;;50.22;12.23;;;11.80;76.60;;;;;;5061826;28;20120;-74
2022/03/15 03:13:44;;;;;;;43.67;12.75;;;11.80;76.60;;;;;;5046747;28;20108;-74
2022/03/15 03:16:12;;;;;;;56.15;14.18;;;11.80;76.60;;;;;;5047055;28;20036;-74
2022/03/15 03:18:38;;;;;;;60.78;13.57;;;11.80;76.70;;;;;;5048127;28;20032;-73
2022/03/15 03:21:04;;;;;;;50.03;13.20;;;11.80;76.70;;;;;;5047705;28;20913;-73
2022/03/15 03:23:33;;;;;;;71.15;14.50;;;11.80;76.70;;;;;;5053434;28;20032;-74
2022/03/15 03:25:59;;;;;;;43.45;11.60;;;11.80;77.00;;;;;;5066277;28;20021;-72
2022/03/15 03:28:30;;;;;;;73.50;15.38;;;11.80;76.90;;;;;;5046548;28;20131;-74
2022/03/15 03:30:56;;;;;;;737.70;59.97;;;11.80;77.00;;;;;;5047567;28;20021;-74
2022/03/15 03:33:22;;;;;;;285.88;28.55;;;11.80;78.10;;;;;;5046447;28;20036;-74
2022/03/15 03:35:49;;;;;;;46.53;12.55;;;11.80;77.60;;;;;;5046516;28;20498;-75
2022/03/15 03:38:16;;;;;;;30.05;11.70;;;11.80;77.10;;;;;;5053094;28;20858;-74
2022/03/15 03:40:41;;;;;;;31.27;11.70;;;11.80;76.80;;;;;;5067185;28;20107;-73
2022/03/15 03:43:07;;;;;;;26.95;11.43;;;11.80;76.60;;;;;;5051013;28;20108;-73
2022/03/15 03:45:34;;;;;;;100.18;16.50;;;11.80;76.60;;;;;;5062755;28;20019;-73
2022/03/15 03:48:00;;;;;;;54.45;13.88;;;11.80;76.80;;;;;;5058873;28;20036;-74
2022/03/15 03:50:26;;;;;;;30.13;11.43;;;11.80;76.70;;;;;;5067175;28;20074;-73
2022/03/15 03:52:51;;;;;;;28.50;11.93;;;11.80;76.50;;;;;;5054825;28;20039;-74
2022/03/15 03:55:17;;;;;;;25.05;11.48;;;11.70;76.40;;;;;;5047756;28;20028;-73
2022/03/15 03:57:42;;;;;;;29.48;12.75;;;11.80;76.40;;;;;;5057285;28;20033;-74
2022/03/15 04:00:08;;;;;;;27.17;11.80;;;11.80;76.40;;;;;;5065930;28;20489;-73
2022/03/15 04:02:34;;;;;;;30.02;12.50;;;11.80;76.40;;;;;;5067062;28;20051;-74
2022/03/15 04:04:59;;;;;;;24.48;11.05;;;11.80;76.40;;;;;;5065656;28;20029;-74
2022/03/15 04:07:25;;;;;;;34.15;11.15;;;11.70;76.40;;;;;;5061413;28;20148;-74
2022/03/15 04:09:51;;;;;;;45.65;12.70;;;11.80;76.40;;;;;;5055741;28;20025;-74
2022/03/15 04:12:19;;;;;;;45.00;11.85;;;11.70;76.40;;;;;;5047753;28;20024;-74
2022/03/15 04:14:45;;;;;;;24.77;10.68;;;11.80;76.60;;;;;;5046864;28;20025;-74
2022/03/15 04:17:10;;;;;;;27.30;10.27;;;11.80;76.50;;;;;;5047019;28;20028;-74
2022/03/15 04:19:36;;;;;;;23.13;10.50;;;11.70;76.50;;;;;;5045756;28;20078;-74
2022/03/15 04:22:02;;;;;;;19.40;11.25;;;11.80;76.50;;;;;;5059001;28;20040;-74
2022/03/15 04:24:27;;;;;;;19.23;10.63;;;11.70;76.40;;;;;;5066914;28;20032;-74
2022/03/15 04:26:53;;;;;;;22.38;11.80;;;11.70;76.40;;;;;;5066681;28;20029;-74
2022/03/15 04:29:20;;;;;;;16.05;10.48;;;11.70;76.40;;;;;;5046978;28;20025;-74
2022/03/15 04:31:46;;;;;;;21.20;11.25;;;11.70;76.50;;;;;;5060086;28;20066;-74
2022/03/15 04:34:11;;;;;;;17.70;10.25;;;11.70;76.40;;;;;;5053007;28;20057;-74
2022/03/15 04:36:37;;;;;;;19.55;11.20;;;11.80;76.50;;;;;;5046539;28;20115;-73
2022/03/15 04:39:03;;;;;;;19.92;10.63;;;11.70;76.40;;;;;;5045519;28;20112;-74
2022/03/15 04:41:29;;;;;;;15.55;10.15;;;11.70;76.40;;;;;;5046360;28;20120;-74
2022/03/15 04:43:55;;;;;;;16.48;10.25;;;11.70;76.40;;;;;;5061445;28;20532;-74
2022/03/15 04:46:20;;;;;;;15.15;9.88;;;11.70;76.40;;;;;;5066149;28;20037;-74
2022/03/15 04:48:46;;;;;;;16.45;10.27;;;11.70;76.40;;;;;;5065082;28;20033;-74
2022/03/15 04:51:12;;;;;;;18.52;10.57;;;11.80;76.40;;;;;;5064282;28;20020;-73
2022/03/15 04:53:37;;;;;;;19.27;10.10;;;11.70;76.40;;;;;;5064609;28;20115;-73
2022/03/15 04:56:03;;;;;;;14.35;10.40;;;11.70;76.40;;;;;;5064560;28;20020;-74
2022/03/15 04:58:29;;;;;;;15.73;10.25;;;11.70;76.40;;;;;;5064500;28;20024;-74
2022/03/15 05:00:54;;;;;;;17.92;10.45;;;11.70;76.40;;;;;;5060991;28;20025;-74
2022/03/15 05:03:20;;;;;;;15.38;10.40;;;11.70;76.90;;;;;;5054673;28;20063;-74
2022/03/15 05:05:45;;;;;;;14.88;9.82;;;11.70;76.40;;;;;;5061763;28;20375;-74
2022/03/15 05:08:11;;;;;;;14.38;10.52;;;11.70;76.40;;;;;;5054726;28;20055;-73
2022/03/15 05:13:21;;;;;;;19.25;11.82;;;11.70;76.40;;;;;;5067485;28;20727;-74
2022/03/15 05:15:48;;;;;;;15.73;10.85;;;11.70;76.40;;;;;;5070613;28;20499;-74
2022/03/15 05:18:14;;;;;;;16.00;11.75;;;11.70;76.40;;;;;;5084567;28;20024;-74
2022/03/15 05:20:39;;;;;;;16.77;11.35;;;11.70;76.40;;;;;;5086041;28;20488;-73
2022/03/15 05:23:05;;;;;;;17.48;11.57;;;11.70;76.40;;;;;;5085799;28;20067;-73
2022/03/15 05:25:31;;;;;;;17.23;11.15;;;11.70;76.40;;;;;;5069480;28;20031;-74
2022/03/15 05:27:57;;;;;;;18.90;11.38;;;11.70;76.40;;;;;;5080965;28;20088;-74
2022/03/15 05:30:23;;;;;;;14.70;11.07;;;11.70;76.40;;;;;;5074959;28;20073;-73
2022/03/15 05:32:49;;;;;;;14.38;10.75;;;11.70;76.40;;;;;;5083373;28;20016;-74
2022/03/15 05:35:15;;;;;;;15.75;11.18;;;11.70;76.40;;;;;;5086102;28;20533;-73
2022/03/15 05:37:41;;;;;;;13.73;10.93;;;11.70;76.40;;;;;;5070637;28;20494;-76
2022/03/15 05:40:07;;;;;;;16.30;10.70;;;11.70;76.40;;;;;;5067455;28;20036;-76
2022/03/15 05:42:33;;;;;;;15.30;10.88;;;11.70;76.40;;;;;;5063139;28;20036;-76
2022/03/15 05:44:59;;;;;;;14.93;11.05;;;11.70;76.40;;;;;;5058893;28;20024;-75
2022/03/15 05:47:24;;;;;;;16.70;11.32;;;11.70;76.40;;;;;;5057693;28;20029;-74
2022/03/15 05:49:50;;;;;;;15.50;11.13;;;11.70;76.40;;;;;;5048104;28;20064;-75
2022/03/15 05:52:16;;;;;;;16.33;11.63;;;11.70;76.30;;;;;;5051460;28;20083;-75
2022/03/15 05:54:41;;;;;;;15.32;11.52;;;11.70;76.40;;;;;;5048486;28;20039;-75
2022/03/15 05:57:07;;;;;;;18.05;12.05;;;11.70;76.20;;;;;;5063955;28;20090;-74
2022/03/15 05:59:32;;;;;;;19.38;12.45;;;11.70;75.50;;;;;;5064707;28;20024;-73
2022/03/15 06:01:58;;;;;;;17.10;12.27;;;11.70;75.40;;;;;;5061833;28;20112;-74
2022/03/15 06:04:25;;;;;;;18.23;12.20;;;11.60;75.50;;;;;;5059828;28;20025;-75
2022/03/15 06:06:51;;;;;;;22.10;11.63;;;11.70;75.70;;;;;;5066803;28;20078;-75
2022/03/15 06:09:17;;;;;;;19.42;11.68;;;11.60;75.70;;;;;;5061334;28;20032;-76
2022/03/15 06:11:43;;;;;;;16.70;12.02;;;11.70;75.70;;;;;;5067723;28;20107;-76
2022/03/15 06:14:09;;;;;;;18.23;11.88;;;11.60;75.60;;;;;;5069218;28;20081;-75
2022/03/15 06:16:34;;;;;;;15.63;11.18;;;11.60;75.60;;;;;;5070413;28;20024;-75
2022/03/15 06:19:00;;;;;;;17.83;11.68;;;11.60;75.50;;;;;;5069620;28;20107;-75
2022/03/15 06:21:25;;;;;;;16.73;11.65;;;11.60;75.40;;;;;;5070687;28;20103;-76
2022/03/15 06:23:51;;;;;;;22.75;12.05;;;11.60;75.40;;;;;;5070087;28;20028;-76
2022/03/15 06:26:20;;;;;;;15.63;11.30;;;11.70;75.30;;;;;;5070433;28;20020;-79
2022/03/15 06:28:46;;;;;;;16.10;11.27;;;11.60;75.20;;;;;;5069515;28;20024;-74
2022/03/15 06:31:13;;;;;;;16.35;11.48;;;11.60;75.20;;;;;;5070836;28;20525;-74
2022/03/15 06:33:39;;;;;;;18.95;11.27;;;11.60;75.00;;;;;;5069098;28;20545;-74
2022/03/15 06:36:11;;;;;;;18.58;11.35;;;11.60;74.40;;;;;;5070326;28;20016;-75
2022/03/15 06:38:38;;;;;;;15.00;10.35;;;11.60;74.50;;;;;;5067160;28;20031;-74
2022/03/15 06:41:03;;;;;;;14.32;11.07;;;11.60;74.60;;;;;;5069633;28;20037;-77
2022/03/15 06:43:29;;;;;;;14.43;10.10;;;11.60;74.60;;;;;;5067496;28;20538;-74
2022/03/15 06:45:54;;;;;;;15.70;11.10;;;11.60;74.70;;;;;;5067209;28;20039;-74
2022/03/15 06:48:20;;;;;;;15.70;10.77;;;11.60;74.70;;;;;;5068288;28;20033;-74
2022/03/15 06:50:45;;;;;;;13.63;10.07;;;11.60;74.70;;;;;;5066478;28;20021;-74
2022/03/15 06:53:11;;;;;;;15.10;10.65;;;11.60;74.40;;;;;;5068552;28;20021;-74
2022/03/15 06:55:36;;;;;;;16.30;11.70;;;11.70;74.80;;;;;;5068504;28;20393;-74
2022/03/15 06:58:02;;;;;;;19.55;11.50;;;11.70;74.20;;;;;;5066805;28;20070;-76
2022/03/15 07:00:27;;;;;;;15.27;11.20;;;11.70;74.30;;;;;;5067097;28;20717;-74
2022/03/15 07:02:53;;;;;;;42.17;13.00;;;11.60;73.60;;;;;;5068418;28;20047;-74
2022/03/15 07:05:19;;;;;;;26.27;12.07;;;11.70;73.60;;;;;;5068142;28;20046;-75
2022/03/15 07:07:45;;;;;;;21.27;11.75;;;11.60;73.60;;;;;;5066474;28;20036;-74
2022/03/15 07:10:12;;;;;;;18.92;11.52;;;11.60;73.60;;;;;;5066290;28;20489;-75
2022/03/15 07:12:38;;;;;;;16.13;11.18;;;11.60;73.70;;;;;;5067799;28;20025;-74
2022/03/15 07:15:05;;;;;;;15.82;10.52;;;11.60;73.80;;;;;;5067936;28;20552;-73
2022/03/15 07:17:31;;;;;;;15.40;11.57;;;11.60;73.90;;;;;;5066752;28;20086;-74
2022/03/15 07:20:00;;;;;;;14.07;10.48;;;11.60;74.00;;;;;;5066162;28;20025;-73
2022/03/15 07:22:26;;;;;;;17.25;11.35;;;11.60;74.10;;;;;;5066063;28;20064;-74
2022/03/15 07:24:52;;;;;;;14.98;11.20;;;11.60;74.10;;;;;;5067755;28;20035;-75
2022/03/15 07:27:21;;;;;;;14.80;11.15;;;11.60;74.10;;;;;;5067591;28;20062;-73
2022/03/15 07:29:47;;;;;;;15.25;11.43;;;11.60;74.10;;;;;;5066340;28;20082;-74
2022/03/15 07:32:12;;;;;;;20.17;10.93;;;11.60;74.10;;;;;;5067165;28;20020;-74
2022/03/15 07:34:38;;;;;;;16.60;10.90;;;11.60;74.10;;;;;;5067536;28;20497;-75
2022/03/15 07:37:04;;;;;;;17.95;11.77;;;11.60;74.10;;;;;;5065832;28;20024;-74
2022/03/15 07:39:30;;;;;;;15.52;11.20;;;11.60;74.20;;;;;;5067403;28;20490;-75
2022/03/15 07:41:56;;;;;;;14.27;10.50;;;11.60;74.20;;;;;;5066863;28;20348;-74
2022/03/15 07:44:21;;;;;;;15.13;11.60;;;11.60;74.20;;;;;;5066282;28;20032;-74
2022/03/15 07:46:50;;;;;;;14.70;11.27;;;11.60;74.20;;;;;;5065790;28;20325;-74
2022/03/15 07:49:17;;;;;;;15.13;11.77;;;11.60;74.30;;;;;;5067631;28;20028;-75
2022/03/15 07:51:44;;;;;;;17.02;11.45;;;11.60;74.30;;;;;;5066887;28;20031;-74
2022/03/15 07:54:09;;;;;;;16.05;10.60;;;11.60;74.30;;;;;;5067114;28;20020;-75
2022/03/15 07:56:35;;;;;;;15.63;11.38;;;11.60;74.30;;;;;;5066020;28;20059;-75
2022/03/15 07:59:00;;;;;;;15.10;11.07;;;11.60;74.30;;;;;;5066866;28;20044;-74
2022/03/15 08:01:26;;;;;;;14.38;11.25;;;11.60;74.30;;;;;;5066888;28;20067;-74
2022/03/15 08:03:53;;;;;;;16.10;11.48;;;11.70;74.40;;;;;;5066009;28;20028;-75
2022/03/15 08:06:18;;;;;;;14.98;11.50;;;11.60;74.30;;;;;;5065674;28;20036;-75
2022/03/15 08:08:44;;;;;;;14.77;10.85;;;11.70;74.40;;;;;;5066649;28;20024;-75
2022/03/15 08:11:10;;;;;;;15.52;11.35;;;11.70;74.40;;;;;;5064861;28;20078;-74
2022/03/15 08:13:35;;;;;;;15.48;11.25;;;11.70;74.40;;;;;;5066749;28;20402;-74
2022/03/15 08:16:05;;;;;;;15.35;11.35;;;11.60;74.40;;;;;;5065058;28;20111;-74
2022/03/15 08:18:31;;;;;;;15.65;10.90;;;11.60;74.40;;;;;;5065157;28;20071;-73
2022/03/15 08:20:59;;;;;;;15.05;11.10;;;11.70;74.40;;;;;;5066285;28;20016;-75
2022/03/15 08:23:28;;;;;;;14.10;10.93;;;11.60;74.30;;;;;;5065075;28;20077;-74
2022/03/15 08:25:55;;;;;;;14.13;10.80;;;11.70;74.40;;;;;;5066546;28;20397;-74
2022/03/15 08:28:22;;;;;;;14.68;11.07;;;11.70;74.40;;;;;;5065356;28;20139;-74
2022/03/15 08:30:48;;;;;;;16.23;10.90;;;11.70;74.40;;;;;;5064088;28;20097;-74
2022/03/15 08:33:13;;;;;;;12.93;10.32;;;11.70;74.40;;;;;;5066393;28;20432;-74
2022/03/15 08:35:39;;;;;;;14.23;11.20;;;11.70;74.50;;;;;;5066268;28;20543;-74
2022/03/15 08:38:05;;;;;;;15.27;10.75;;;11.70;74.50;;;;;;5066308;28;20025;-75
2022/03/15 08:40:31;;;;;;;13.75;10.77;;;11.70;74.50;;;;;;5066162;28;20016;-74
2022/03/15 08:42:56;;;;;;;13.45;10.55;;;11.70;74.50;;;;;;5064794;28;20020;-74
2022/03/15 08:45:22;;;;;;;16.38;11.15;;;11.70;74.50;;;;;;5066071;28;20034;-74
2022/03/15 08:47:48;;;;;;;14.80;10.30;;;11.70;74.60;;;;;;5066090;28;20386;-74
2022/03/15 08:50:13;;;;;;;14.43;11.00;;;11.70;74.60;;;;;;5065948;28;20647;-74
2022/03/15 08:52:39;;;;;;;15.05;10.38;;;11.70;74.60;;;;;;5064535;28;20031;-75
2022/03/15 08:55:05;;;;;;;15.20;11.05;;;11.70;74.60;;;;;;5064616;28;20020;-74
2022/03/15 08:57:31;;;;;;;14.05;10.55;;;11.70;74.70;;;;;;5064768;28;20036;-75
2022/03/15 08:59:58;;;;;;;14.10;10.55;;;11.70;74.70;;;;;;5066327;28;20246;-74
2022/03/15 09:02:23;;;;;;;14.77;10.75;;;11.70;74.70;;;;;;5064337;28;20078;-74
2022/03/15 09:04:49;;;;;;;13.52;10.02;;;11.70;74.70;;;;;;5064418;28;20028;-74
2022/03/15 09:07:14;;;;;;;13.45;10.07;;;11.80;74.70;;;;;;5065816;28;20036;-74
2022/03/15 09:09:40;;;;;;;15.30;10.75;;;11.70;74.70;;;;;;5064351;28;20028;-74
2022/03/15 09:12:05;;;;;;;15.52;10.95;;;11.70;74.80;;;;;;5063658;28;20054;-74
2022/03/15 09:14:32;;;;;;;14.15;10.68;;;11.70;74.70;;;;;;5064678;28;20130;-74
2022/03/15 09:16:58;;;;;;;14.60;10.68;;;11.70;74.80;;;;;;5064415;28;20548;-74
2022/03/15 09:19:23;;;;;;;14.88;10.82;;;11.70;74.80;;;;;;5065685;28;20143;-74
2022/03/15 09:21:49;;;;;;;15.25;10.35;;;11.70;74.70;;;;;;5065754;28;20077;-74
2022/03/15 09:24:15;;;;;;;14.50;10.25;;;11.70;74.80;;;;;;5064105;28;20039;-75
2022/03/15 09:26:41;;;;;;;13.75;10.80;;;11.70;74.80;;;;;;5065447;28;20033;-74
2022/03/15 09:29:07;;;;;;;13.18;10.18;;;11.70;74.80;;;;;;5064271;28;20021;-75
2022/03/15 09:31:33;;;;;;;14.23;10.27;;;11.70;74.90;;;;;;5063866;28;20017;-74
2022/03/15 09:33:58;;;;;;;13.95;10.38;;;11.70;74.90;;;;;;5065421;28;20035;-75
2022/03/15 09:36:24;;;;;;;13.48;10.02;;;11.70;74.90;;;;;;5059548;28;20029;-74
2022/03/15 09:38:50;;;;;;;15.30;10.60;;;11.70;74.90;;;;;;5043153;28;20477;-74
2022/03/15 09:41:18;;;;;;;14.65;9.70;;;11.70;75.00;;;;;;5044168;28;20199;-74
2022/03/15 09:43:45;;;;;;;12.30;9.60;;;11.70;75.00;;;;;;5044761;28;20504;-74
2022/03/15 09:46:12;;;;;;;15.25;10.60;;;11.70;75.00;;;;;;5044768;28;20048;-75
2022/03/15 09:48:40;;;;;;;13.63;9.73;;;11.70;75.00;;;;;;5045060;28;20025;-74
2022/03/15 09:51:06;;;;;;;15.23;9.90;;;11.70;75.00;;;;;;5045107;28;20404;-74
2022/03/15 09:53:34;;;;;;;15.50;10.52;;;11.80;75.10;;;;;;5045012;28;20025;-75
2022/03/15 09:56:00;;;;;;;13.30;10.15;;;11.70;75.00;;;;;;5045055;28;20297;-73
2022/03/15 09:58:26;;;;;;;14.38;10.20;;;11.80;75.10;;;;;;5045110;28;20025;-75
2022/03/15 10:00:54;;;;;;;15.02;9.77;;;11.80;75.00;;;;;;5044718;28;20036;-75
2022/03/15 10:03:20;;;;;;;12.48;9.70;;;11.80;75.00;;;;;;5043776;28;20025;-74
2022/03/15 10:05:46;;;;;;;13.30;10.25;;;11.70;75.00;;;;;;5045156;28;20079;-74
2022/03/15 10:08:17;;;;;;;13.57;10.00;;;11.80;75.10;;;;;;5044776;28;20444;-74
2022/03/15 10:10:43;;;;;;;13.02;9.60;;;11.80;75.10;;;;;;5044833;28;20044;-74
2022/03/15 10:13:09;;;;;;;14.05;10.32;;;11.80;75.10;;;;;;5044831;28;20335;-73
2022/03/15 10:15:35;;;;;;;15.60;10.32;;;11.80;75.10;;;;;;5043781;28;20028;-74
2022/03/15 10:18:04;;;;;;;15.48;10.02;;;11.80;75.10;;;;;;5043541;28;20118;-74
2022/03/15 10:20:41;;;;;;;13.02;9.90;;;11.80;75.10;;;;;;5043666;28;20147;-74
2022/03/15 10:23:10;;;;;;;13.52;9.52;;;11.80;75.10;;;;;;5044973;28;20120;-76
2022/03/15 10:25:37;;;;;;;14.32;10.00;;;11.80;75.20;;;;;;5043674;28;20123;-75
2022/03/15 10:28:05;;;;;;;14.13;10.00;;;11.80;75.20;;;;;;5043323;28;20056;-74
2022/03/15 10:30:32;;;;;;;14.02;9.77;;;11.80;75.20;;;;;;5043940;28;20507;-74
2022/03/15 10:32:59;;;;;;;12.98;9.90;;;11.80;75.20;;;;;;5044744;28;20028;-75
2022/03/15 10:35:27;;;;;;;13.38;10.07;;;11.90;75.30;;;;;;5044791;28;20244;-74
2022/03/15 10:37:54;;;;;;;13.73;9.77;;;11.90;75.40;;;;;;5044633;28;20111;-74
2022/03/15 10:40:41;;;;;;;14.50;10.07;;;11.90;75.40;;;;;;5043397;28;20044;-74
2022/03/15 10:43:11;;;;;;;15.05;10.63;;;11.90;75.40;;;;;;5044388;28;20025;-74
2022/03/15 10:45:46;;;;;;;12.80;9.43;;;11.90;75.50;;;;;;5042568;28;20786;-74
2022/03/15 10:48:20;;;;;;;13.73;9.52;;;11.90;75.50;;;;;;5043384;28;20406;-74
2022/03/15 10:50:49;;;;;;;13.25;9.90;;;11.90;75.50;;;;;;5043365;28;20121;-74
2022/03/15 10:53:15;;;;;;;13.07;9.43;;;11.90;75.50;;;;;;5044440;28;20086;-75
2022/03/15 10:55:40;;;;;;;13.38;9.40;;;11.90;75.50;;;;;;5046790;28;20230;-74
2022/03/15 10:58:07;;;;;;;12.13;9.27;;;11.90;75.60;;;;;;5046836;28;20464;-74
2022/03/15 11:00:36;;;;;;;12.35;8.68;;;11.90;75.60;;;;;;5046749;28;20184;-74
2022/03/15 11:03:05;;;;;;;12.98;9.55;;;11.90;75.70;;;;;;5047780;28;20056;-74
2022/03/15 11:05:35;;;;;;;13.52;9.75;;;11.90;75.80;;;;;;5046822;28;20028;-74
2022/03/15 11:08:06;;;;;;;14.07;9.43;;;11.90;75.80;;;;;;5048278;28;20500;-74
2022/03/15 11:10:33;;;;;;;12.88;9.32;;;11.90;75.90;;;;;;5047831;28;20428;-75
2022/03/15 11:13:09;;;;;;;13.68;8.73;;;11.90;76.00;;;;;;5048072;28;20438;-75
2022/03/15 11:15:39;;;;;;;12.73;9.05;;;11.90;76.10;;;;;;5046979;28;20032;-74
2022/03/15 11:18:06;;;;;;;13.05;9.13;;;11.90;76.20;;;;;;5047848;28;20505;-75
2022/03/15 11:20:35;;;;;;;12.73;8.88;;;11.90;76.10;;;;;;5046438;28;20128;-74
2022/03/15 11:23:03;;;;;;;13.02;9.30;;;11.90;76.00;;;;;;5047289;28;20078;-74
2022/03/15 11:25:40;;;;;;;13.38;9.00;;;11.90;75.90;;;;;;5047729;28;20063;-75
2022/03/15 11:28:14;;;;;;;12.27;9.00;;;11.90;75.90;;;;;;5047465;28;20060;-74
2022/03/15 11:30:42;;;;;;;13.23;9.05;;;11.90;76.00;;;;;;5046805;28;20087;-74
2022/03/15 11:33:09;;;;;;;12.68;9.38;;;11.90;76.10;;;;;;5047204;28;20027;-74
2022/03/15 11:35:38;;;;;;;12.77;8.80;;;11.90;76.20;;;;;;5047286;28;20029;-73
2022/03/15 11:38:07;;;;;;;12.07;8.95;;;11.90;76.20;;;;;;5047351;28;20350;-74
2022/03/15 11:40:33;;;;;;;13.25;9.10;;;11.90;76.30;;;;;;5047528;28;20032;-74
2022/03/15 11:43:22;;;;;;;13.10;9.23;;;11.90;76.30;;;;;;5045828;28;20024;-74
2022/03/15 11:45:58;;;;;;;13.50;9.05;;;11.90;76.30;;;;;;5045914;28;20033;-74
2022/03/15 11:48:43;;;;;;;12.27;9.07;;;11.90;76.30;;;;;;5047065;28;20147;-75
2022/03/15 11:51:33;;;;;;;12.32;8.55;;;11.90;76.80;;;;;;5045543;28;20502;-74
2022/03/15 11:54:15;;;;;;;13.65;8.38;;;11.90;76.20;;;;;;5045911;28;20025;-74
2022/03/15 11:56:48;;;;;;;11.63;8.60;;;11.90;76.20;;;;;;5045922;28;20449;-74
2022/03/15 11:59:14;;;;;;;11.30;8.10;;;12.00;76.20;;;;;;5045988;28;20441;-75
2022/03/15 12:01:49;;;;;;;12.05;8.50;;;12.00;76.20;;;;;;5046884;28;20371;-74
2022/03/15 12:04:16;;;;;;;11.70;8.50;;;12.00;76.20;;;;;;5045568;28;20025;-75
2022/03/15 12:06:54;;;;;;;11.90;8.55;;;12.00;76.30;;;;;;5046913;28;20060;-74
2022/03/15 12:09:22;;;;;;;12.23;8.93;;;11.90;76.30;;;;;;5046731;28;20055;-74
2022/03/15 12:12:08;;;;;;;11.75;8.35;;;12.00;76.30;;;;;;5045393;28;20447;-74
2022/03/15 12:14:39;;;;;;;13.30;8.52;;;12.00;76.10;;;;;;5045584;28;20145;-75
2022/03/15 12:17:06;;;;;;;11.88;8.48;;;12.00;76.70;;;;;;5046725;28;20021;-74
2022/03/15 12:19:41;;;;;;;12.60;8.80;;;12.00;76.20;;;;;;5045114;28;20044;-74
2022/03/15 12:22:09;;;;;;;11.63;8.23;;;11.90;76.20;;;;;;5045233;28;20029;-74
2022/03/15 12:24:37;;;;;;;12.13;7.95;;;12.00;76.30;;;;;;5045384;28;20055;-74
2022/03/15 12:27:04;;;;;;;11.60;8.43;;;12.00;76.30;;;;;;5046354;28;20025;-74
2022/03/15 12:29:30;;;;;;;13.20;8.07;;;11.90;76.20;;;;;;5045076;28;20033;-74